sensor_id;sensor_type;location;lat;lon;timestamp;pressure;altitude;pressure_sealevel;temperature;humidity
67038;BME280;53940;53.204;6.590;2022-07-12T00:01:20;102433.22;;;21.97;56.52
67038;BME280;53940;53.204;6.590;2022-07-12T00:04:21;102428.84;;;21.96;56.72
67038;BME280;53940;53.204;6.590;2022-07-12T00:07:21;102428.84;;;21.96;56.87
67038;BME280;53940;53.204;6.590;2022-07-12T00:10:21;102427.03;;;21.97;56.77
67038;BME280;53940;53.204;6.590;2022-07-12T00:13:22;102432.50;;;21.95;56.78
67038;BME280;53940;53.204;6.590;2022-07-12T00:16:22;102428.94;;;21.94;56.70
67038;BME280;53940;53.204;6.590;2022-07-12T00:19:22;102433.38;;;21.96;56.83
67038;BME280;53940;53.204;6.590;2022-07-12T00:22:23;102437.00;;;21.94;56.86
67038;BME280;53940;53.204;6.590;2022-07-12T00:25:24;102431.63;;;21.94;56.78
67038;BME280;53940;53.204;6.590;2022-07-12T00:28:26;102428.94;;;21.94;56.55
67038;BME280;53940;53.204;6.590;2022-07-12T00:31:26;102422.84;;;21.92;56.56
67038;BME280;53940;53.204;6.590;2022-07-12T00:34:26;102412.09;;;21.92;56.78
67038;BME280;53940;53.204;6.590;2022-07-12T00:37:27;102412.09;;;21.92;56.69
67038;BME280;53940;53.204;6.590;2022-07-12T00:40:27;102412.09;;;21.92;56.66
67038;BME280;53940;53.204;6.590;2022-07-12T00:43:27;102405.88;;;21.92;56.76
67038;BME280;53940;53.204;6.590;2022-07-12T00:46:28;102405.03;;;21.91;56.71
67038;BME280;53940;53.204;6.590;2022-07-12T00:49:30;102407.69;;;21.91;56.93
67038;BME280;53940;53.204;6.590;2022-07-12T00:52:31;102399.75;;;21.90;56.75
67038;BME280;53940;53.204;6.590;2022-07-12T00:55:31;102403.31;;;21.90;56.67
67038;BME280;53940;53.204;6.590;2022-07-12T00:58:32;102401.59;;;21.89;56.79
67038;BME280;53940;53.204;6.590;2022-07-12T01:01:33;102402.44;;;21.90;56.81
67038;BME280;53940;53.204;6.590;2022-07-12T01:04:33;102410.59;;;21.88;56.93
67038;BME280;53940;53.204;6.590;2022-07-12T01:07:35;102412.34;;;21.89;56.78
67038;BME280;53940;53.204;6.590;2022-07-12T01:10:36;102422.19;;;21.89;56.80
67038;BME280;53940;53.204;6.590;2022-07-12T01:13:39;102423.06;;;21.89;56.89
67038;BME280;53940;53.204;6.590;2022-07-12T01:16:40;102422.19;;;21.89;56.87
67038;BME280;53940;53.204;6.590;2022-07-12T01:19:41;102418.66;;;21.88;56.57
67038;BME280;53940;53.204;6.590;2022-07-12T01:22:51;102418.66;;;21.88;56.60
67038;BME280;53940;53.204;6.590;2022-07-12T01:25:52;102430.34;;;21.87;56.56
67038;BME280;53940;53.204;6.590;2022-07-12T01:28:53;102419.63;;;21.87;56.67
67038;BME280;53940;53.204;6.590;2022-07-12T01:31:55;102428.66;;;21.86;56.67
67038;BME280;53940;53.204;6.590;2022-07-12T01:35:00;102426.81;;;21.87;56.74
67038;BME280;53940;53.204;6.590;2022-07-12T01:38:01;102423.28;;;21.86;56.54
67038;BME280;53940;53.204;6.590;2022-07-12T01:41:01;102428.66;;;21.86;56.58
67038;BME280;53940;53.204;6.590;2022-07-12T01:44:02;102433.13;;;21.86;56.66
67038;BME280;53940;53.204;6.590;2022-07-12T01:47:02;102433.13;;;21.86;56.52
67038;BME280;53940;53.204;6.590;2022-07-12T01:50:07;102435.97;;;21.84;56.73
67038;BME280;53940;53.204;6.590;2022-07-12T01:53:07;102437.66;;;21.85;56.56
67038;BME280;53940;53.204;6.590;2022-07-12T01:56:08;102447.53;;;21.85;56.72
67038;BME280;53940;53.204;6.590;2022-07-12T01:59:09;102433.28;;;21.84;56.82
67038;BME280;53940;53.204;6.590;2022-07-12T02:02:09;102435.97;;;21.84;56.70
67038;BME280;53940;53.204;6.590;2022-07-12T02:05:10;102434.25;;;21.83;56.73
67038;BME280;53940;53.204;6.590;2022-07-12T02:08:10;102436.94;;;21.83;56.87
67038;BME280;53940;53.204;6.590;2022-07-12T02:11:10;102429.72;;;21.84;56.65
67038;BME280;53940;53.204;6.590;2022-07-12T02:14:12;102421.75;;;21.82;56.63
67038;BME280;53940;53.204;6.590;2022-07-12T02:17:12;102426.19;;;21.83;56.55
67038;BME280;53940;53.204;6.590;2022-07-12T02:20:13;102427.13;;;21.82;56.83
67038;BME280;53940;53.204;6.590;2022-07-12T02:23:13;102430.69;;;21.83;56.59
67038;BME280;53940;53.204;6.590;2022-07-12T02:26:13;102431.56;;;21.83;56.58
67038;BME280;53940;53.204;6.590;2022-07-12T02:29:14;102428.00;;;21.83;56.59
67038;BME280;53940;53.204;6.590;2022-07-12T02:32:14;102419.22;;;21.80;56.79
67038;BME280;53940;53.204;6.590;2022-07-12T02:35:14;102426.28;;;21.81;56.58
67038;BME280;53940;53.204;6.590;2022-07-12T02:38:14;102425.41;;;21.81;56.57
67038;BME280;53940;53.204;6.590;2022-07-12T02:41:15;102417.38;;;21.81;56.73
67038;BME280;53940;53.204;6.590;2022-07-12T02:44:15;102409.31;;;21.81;56.56
67038;BME280;53940;53.204;6.590;2022-07-12T02:47:16;102412.97;;;21.80;56.76
67038;BME280;53940;53.204;6.590;2022-07-12T02:50:16;102404.94;;;21.80;56.72
67038;BME280;53940;53.204;6.590;2022-07-12T02:53:16;102408.47;;;21.80;56.45
67038;BME280;53940;53.204;6.590;2022-07-12T02:56:17;102406.75;;;21.79;56.67
67038;BME280;53940;53.204;6.590;2022-07-12T02:59:17;102405.91;;;21.79;56.53
67038;BME280;53940;53.204;6.590;2022-07-12T03:02:17;102399.66;;;21.78;56.55
67038;BME280;53940;53.204;6.590;2022-07-12T03:05:18;102417.38;;;21.81;56.82
67038;BME280;53940;53.204;6.590;2022-07-12T03:08:18;102416.63;;;21.79;56.71
67038;BME280;53940;53.204;6.590;2022-07-12T03:11:18;102419.31;;;21.79;56.80
67038;BME280;53940;53.204;6.590;2022-07-12T03:14:19;102406.88;;;21.78;56.54
67038;BME280;53940;53.204;6.590;2022-07-12T03:17:19;102410.41;;;21.78;56.68
67038;BME280;53940;53.204;6.590;2022-07-12T03:20:19;102413.06;;;21.78;56.71
67038;BME280;53940;53.204;6.590;2022-07-12T03:23:20;102417.59;;;21.78;56.42
67038;BME280;53940;53.204;6.590;2022-07-12T03:26:20;102425.66;;;21.78;56.56
67038;BME280;53940;53.204;6.590;2022-07-12T03:29:21;102430.16;;;21.77;56.57
67038;BME280;53940;53.204;6.590;2022-07-12T03:32:23;102415.91;;;21.77;56.74
67038;BME280;53940;53.204;6.590;2022-07-12T03:35:23;102414.91;;;21.78;56.38
67038;BME280;53940;53.204;6.590;2022-07-12T03:38:24;102410.53;;;21.77;56.64
67038;BME280;53940;53.204;6.590;2022-07-12T03:41:24;102415.91;;;21.77;56.80
67038;BME280;53940;53.204;6.590;2022-07-12T03:44:24;102415.03;;;21.76;56.57
67038;BME280;53940;53.204;6.590;2022-07-12T03:47:25;102416.84;;;21.76;56.55
67038;BME280;53940;53.204;6.590;2022-07-12T03:50:26;102411.47;;;21.76;56.71
67038;BME280;53940;53.204;6.590;2022-07-12T03:53:26;102419.50;;;21.76;56.47
67038;BME280;53940;53.204;6.590;2022-07-12T03:56:26;102422.19;;;21.76;56.81
67038;BME280;53940;53.204;6.590;2022-07-12T03:59:45;102424.88;;;21.76;56.35
67038;BME280;53940;53.204;6.590;2022-07-12T04:02:45;102425.84;;;21.75;56.40
67038;BME280;53940;53.204;6.590;2022-07-12T04:05:46;102420.50;;;21.75;56.43
67038;BME280;53940;53.204;6.590;2022-07-12T04:08:46;102420.50;;;21.75;56.68
67038;BME280;53940;53.204;6.590;2022-07-12T04:11:46;102415.13;;;21.75;56.58
67038;BME280;53940;53.204;6.590;2022-07-12T04:14:47;102424.88;;;21.76;56.50
67038;BME280;53940;53.204;6.590;2022-07-12T04:17:47;102420.50;;;21.75;56.62
67038;BME280;53940;53.204;6.590;2022-07-12T04:20:47;102424.16;;;21.74;56.61
67038;BME280;53940;53.204;6.590;2022-07-12T04:23:48;102425.00;;;21.74;56.40
67038;BME280;53940;53.204;6.590;2022-07-12T04:26:49;102425.84;;;21.75;56.75
67038;BME280;53940;53.204;6.590;2022-07-12T04:29:49;102429.41;;;21.75;56.63
67038;BME280;53940;53.204;6.590;2022-07-12T04:32:49;102424.16;;;21.74;56.48
67038;BME280;53940;53.204;6.590;2022-07-12T04:35:50;102432.09;;;21.75;56.47
67038;BME280;53940;53.204;6.590;2022-07-12T04:38:50;102436.59;;;21.75;56.40
67038;BME280;53940;53.204;6.590;2022-07-12T04:41:50;102437.47;;;21.75;56.67
67038;BME280;53940;53.204;6.590;2022-07-12T04:44:51;102425.84;;;21.75;56.75
67038;BME280;53940;53.204;6.590;2022-07-12T04:47:51;102422.44;;;21.73;56.51
67038;BME280;53940;53.204;6.590;2022-07-12T04:50:52;102418.78;;;21.74;56.48
67038;BME280;53940;53.204;6.590;2022-07-12T04:53:52;102421.47;;;21.74;56.61
67038;BME280;53940;53.204;6.590;2022-07-12T04:56:53;102421.47;;;21.74;56.70
67038;BME280;53940;53.204;6.590;2022-07-12T04:59:53;102429.50;;;21.74;56.49
67038;BME280;53940;53.204;6.590;2022-07-12T05:02:53;102424.16;;;21.74;56.55
67038;BME280;53940;53.204;6.590;2022-07-12T05:05:54;102430.38;;;21.74;56.44
67038;BME280;53940;53.204;6.590;2022-07-12T05:08:55;102432.19;;;21.74;56.46
67038;BME280;53940;53.204;6.590;2022-07-12T05:11:55;102439.38;;;21.73;56.56
67038;BME280;53940;53.204;6.590;2022-07-12T05:14:56;102440.25;;;21.74;56.42
67038;BME280;53940;53.204;6.590;2022-07-12T05:17:56;102441.97;;;21.75;56.54
67038;BME280;53940;53.204;6.590;2022-07-12T05:20:56;102443.66;;;21.76;56.76
67038;BME280;53940;53.204;6.590;2022-07-12T05:23:57;102447.22;;;21.76;56.68
67038;BME280;53940;53.204;6.590;2022-07-12T05:26:57;102451.63;;;21.77;56.77
67038;BME280;53940;53.204;6.590;2022-07-12T05:29:57;102454.19;;;21.79;56.45
67038;BME280;53940;53.204;6.590;2022-07-12T05:32:58;102448.84;;;21.79;56.54
67038;BME280;53940;53.204;6.590;2022-07-12T05:35:58;102451.41;;;21.80;56.75
67038;BME280;53940;53.204;6.590;2022-07-12T05:38:58;102447.75;;;21.81;56.48
67038;BME280;53940;53.204;6.590;2022-07-12T05:41:59;102443.22;;;21.82;56.65
67038;BME280;53940;53.204;6.590;2022-07-12T05:44:59;102441.31;;;21.84;56.78
67038;BME280;53940;53.204;6.590;2022-07-12T05:47:59;102437.66;;;21.85;56.62
67038;BME280;53940;53.204;6.590;2022-07-12T05:51:00;102439.38;;;21.86;56.35
67038;BME280;53940;53.204;6.590;2022-07-12T05:54:20;102454.41;;;21.89;56.59
67038;BME280;53940;53.204;6.590;2022-07-12T05:57:20;102460.66;;;21.89;56.70
67038;BME280;53940;53.204;6.590;2022-07-12T06:00:20;102455.28;;;21.89;56.54
67038;BME280;53940;53.204;6.590;2022-07-12T06:03:21;102463.09;;;21.92;56.62
67038;BME280;53940;53.204;6.590;2022-07-12T06:06:21;102456.75;;;21.93;56.42
67038;BME280;53940;53.204;6.590;2022-07-12T06:09:22;102454.84;;;21.96;56.48
67038;BME280;53940;53.204;6.590;2022-07-12T06:12:22;102460.22;;;21.96;56.38
67038;BME280;53940;53.204;6.590;2022-07-12T06:15:22;102451.94;;;21.99;56.64
67038;BME280;53940;53.204;6.590;2022-07-12T06:18:25;102456.31;;;22.00;56.26
67038;BME280;53940;53.204;6.590;2022-07-12T06:21:25;102458.03;;;22.01;56.54
67038;BME280;53940;53.204;6.590;2022-07-12T06:24:26;102455.16;;;22.04;56.59
67038;BME280;53940;53.204;6.590;2022-07-12T06:27:26;102450.50;;;22.06;56.53
67038;BME280;53940;53.204;6.590;2022-07-12T06:30:27;102453.09;;;22.07;56.43
67038;BME280;53940;53.204;6.590;2022-07-12T06:33:27;102450.31;;;22.09;56.35
67038;BME280;53940;53.204;6.590;2022-07-12T06:36:27;102453.72;;;22.11;56.46
67038;BME280;53940;53.204;6.590;2022-07-12T06:39:28;102458.03;;;22.14;56.34
67038;BME280;53940;53.204;6.590;2022-07-12T06:42:28;102465.97;;;22.15;56.26
67038;BME280;53940;53.204;6.590;2022-07-12T06:45:29;102465.88;;;22.17;56.38
67038;BME280;53940;53.204;6.590;2022-07-12T06:48:29;102462.09;;;22.19;56.20
67038;BME280;53940;53.204;6.590;2022-07-12T06:51:29;102460.16;;;22.21;56.32
67038;BME280;53940;53.204;6.590;2022-07-12T06:54:30;102465.28;;;22.25;55.96
67038;BME280;53940;53.204;6.590;2022-07-12T06:57:30;102468.75;;;22.27;56.02
67038;BME280;53940;53.204;6.590;2022-07-12T07:00:30;102472.06;;;22.30;56.24
67038;BME280;53940;53.204;6.590;2022-07-12T07:03:31;102467.34;;;22.34;56.22
67038;BME280;53940;53.204;6.590;2022-07-12T07:06:31;102467.22;;;22.35;56.03
67038;BME280;53940;53.204;6.590;2022-07-12T07:09:31;102472.38;;;22.39;55.99
67038;BME280;53940;53.204;6.590;2022-07-12T07:12:32;102463.13;;;22.43;55.82
67038;BME280;53940;53.204;6.590;2022-07-12T07:15:32;102462.03;;;22.45;55.99
67038;BME280;53940;53.204;6.590;2022-07-12T07:18:33;102456.44;;;22.48;55.99
67038;BME280;53940;53.204;6.590;2022-07-12T07:21:33;102454.28;;;22.54;55.95
67038;BME280;53940;53.204;6.590;2022-07-12T07:24:34;102453.84;;;22.60;55.83
67038;BME280;53940;53.204;6.590;2022-07-12T07:27:34;102458.88;;;22.65;55.80
67038;BME280;53940;53.204;6.590;2022-07-12T07:30:34;102454.88;;;22.70;55.66
67038;BME280;53940;53.204;6.590;2022-07-12T07:33:53;102449.06;;;22.77;55.86
67038;BME280;53940;53.204;6.590;2022-07-12T07:36:53;102452.25;;;22.82;55.50
67038;BME280;53940;53.204;6.590;2022-07-12T07:39:54;102442.00;;;22.87;55.48
67038;BME280;53940;53.204;6.590;2022-07-12T07:42:54;102439.59;;;22.95;55.36
67038;BME280;53940;53.204;6.590;2022-07-12T07:45:54;102445.50;;;23.00;55.34
67038;BME280;53940;53.204;6.590;2022-07-12T07:48:55;102437.91;;;23.06;55.36
67038;BME280;53940;53.204;6.590;2022-07-12T07:51:55;102447.34;;;23.11;55.24
67038;BME280;53940;53.204;6.590;2022-07-12T07:54:55;102446.00;;;23.17;55.10
67038;BME280;53940;53.204;6.590;2022-07-12T07:57:55;102448.25;;;23.23;54.89
67038;BME280;53940;53.204;6.590;2022-07-12T08:00:59;102443.38;;;23.28;54.98
67038;BME280;53940;53.204;6.590;2022-07-12T08:03:59;102446.59;;;23.34;54.76
67038;BME280;53940;53.204;6.590;2022-07-12T08:07:00;102442.69;;;23.38;54.73
67038;BME280;53940;53.204;6.590;2022-07-12T08:10:00;102446.84;;;23.42;54.71
67038;BME280;53940;53.204;6.590;2022-07-12T08:13:00;102454.44;;;23.48;54.52
67038;BME280;53940;53.204;6.590;2022-07-12T08:16:01;102447.97;;;23.51;54.57
67038;BME280;53940;53.204;6.590;2022-07-12T08:19:02;102444.19;;;23.53;54.47
67038;BME280;53940;53.204;6.590;2022-07-12T08:22:03;102449.19;;;23.58;54.34
67038;BME280;53940;53.204;6.590;2022-07-12T08:25:04;102448.09;;;23.61;54.21
67038;BME280;53940;53.204;6.590;2022-07-12T08:28:04;102443.47;;;23.63;54.27
67038;BME280;53940;53.204;6.590;2022-07-12T08:31:05;102439.69;;;23.65;54.26
67038;BME280;53940;53.204;6.590;2022-07-12T08:34:05;102441.41;;;23.66;54.24
67038;BME280;53940;53.204;6.590;2022-07-12T08:37:06;102446.63;;;23.68;54.16
67038;BME280;53940;53.204;6.590;2022-07-12T08:40:07;102436.72;;;23.68;54.06
67038;BME280;53940;53.204;6.590;2022-07-12T08:43:07;102432.94;;;23.71;53.92
67038;BME280;53940;53.204;6.590;2022-07-12T08:46:13;102448.97;;;23.73;54.02
67038;BME280;53940;53.204;6.590;2022-07-12T08:49:13;102449.72;;;23.75;53.92
67038;BME280;53940;53.204;6.590;2022-07-12T08:52:29;102438.81;;;23.76;53.80
67038;BME280;53940;53.204;6.590;2022-07-12T08:55:34;102439.56;;;23.78;53.78
67038;BME280;53940;53.204;6.590;2022-07-12T08:58:34;102434.91;;;23.80;53.81
67038;BME280;53940;53.204;6.590;2022-07-12T09:01:42;102441.03;;;23.82;53.72
67038;BME280;53940;53.204;6.590;2022-07-12T09:04:43;102425.59;;;23.85;53.72
67038;BME280;53940;53.204;6.590;2022-07-12T09:07:43;102428.91;;;23.88;53.61
67038;BME280;53940;53.204;6.590;2022-07-12T09:13:52;102433.94;;;23.93;53.67
67038;BME280;53940;53.204;6.590;2022-07-12T09:17:07;102433.69;;;23.96;53.36
67038;BME280;53940;53.204;6.590;2022-07-12T09:20:14;102437.09;;;23.98;53.29
67038;BME280;53940;53.204;6.590;2022-07-12T09:23:15;102427.91;;;24.01;53.39
67038;BME280;53940;53.204;6.590;2022-07-12T09:26:16;102431.47;;;24.01;53.45
67038;BME280;53940;53.204;6.590;2022-07-12T09:29:16;102434.16;;;24.01;53.37
67038;BME280;53940;53.204;6.590;2022-07-12T09:32:18;102422.41;;;24.02;53.46
67038;BME280;53940;53.204;6.590;2022-07-12T09:35:37;102425.09;;;24.02;53.26
67038;BME280;53940;53.204;6.590;2022-07-12T09:38:57;102425.09;;;24.02;53.08
67038;BME280;53940;53.204;6.590;2022-07-12T09:42:01;102425.09;;;24.02;53.29
67038;BME280;53940;53.204;6.590;2022-07-12T09:45:02;102425.09;;;24.02;53.34
67038;BME280;53940;53.204;6.590;2022-07-12T09:48:04;102425.09;;;24.02;53.24
67038;BME280;53940;53.204;6.590;2022-07-12T09:51:05;102431.38;;;24.03;53.21
67038;BME280;53940;53.204;6.590;2022-07-12T09:54:09;102430.25;;;24.05;53.43
67038;BME280;53940;53.204;6.590;2022-07-12T09:57:20;102422.06;;;24.07;53.28
67038;BME280;53940;53.204;6.590;2022-07-12T10:00:20;102428.06;;;24.11;53.24
67038;BME280;53940;53.204;6.590;2022-07-12T10:03:22;102425.25;;;24.12;53.27
67038;BME280;53940;53.204;6.590;2022-07-12T10:06:28;102424.16;;;24.15;53.13
67038;BME280;53940;53.204;6.590;2022-07-12T10:09:29;102425.75;;;24.17;53.06
67038;BME280;53940;53.204;6.590;2022-07-12T10:12:32;102427.31;;;24.20;53.00
67038;BME280;53940;53.204;6.590;2022-07-12T10:15:34;102424.50;;;24.21;52.88
67038;BME280;53940;53.204;6.590;2022-07-12T10:18:34;102426.22;;;24.22;52.97
67038;BME280;53940;53.204;6.590;2022-07-12T10:21:39;102414.56;;;24.22;52.92
67038;BME280;53940;53.204;6.590;2022-07-12T10:27:42;102412.28;;;24.17;52.96
67038;BME280;53940;53.204;6.590;2022-07-12T10:30:48;102405.19;;;24.16;53.02
67038;BME280;53940;53.204;6.590;2022-07-12T10:33:59;102415.94;;;24.16;52.72
67038;BME280;53940;53.204;6.590;2022-07-12T10:40:13;102405.28;;;24.15;52.83
67038;BME280;53940;53.204;6.590;2022-07-12T10:43:16;102402.59;;;24.15;52.76
67038;BME280;53940;53.204;6.590;2022-07-12T10:46:18;102411.66;;;24.14;53.09
67038;BME280;53940;53.204;6.590;2022-07-12T10:49:24;102408.25;;;24.12;52.92
67038;BME280;53940;53.204;6.590;2022-07-12T10:52:27;102401.13;;;24.11;53.06
67038;BME280;53940;53.204;6.590;2022-07-12T10:55:28;102399.41;;;24.09;53.04
67038;BME280;53940;53.204;6.590;2022-07-12T10:58:33;102397.72;;;24.08;53.04
67038;BME280;53940;53.204;6.590;2022-07-12T11:01:34;102396.97;;;24.06;52.82
67038;BME280;53940;53.204;6.590;2022-07-12T11:04:34;102403.34;;;24.05;52.85
67038;BME280;53940;53.204;6.590;2022-07-12T11:07:35;102397.19;;;24.03;52.93
67038;BME280;53940;53.204;6.590;2022-07-12T11:10:35;102395.38;;;24.04;52.83
67038;BME280;53940;53.204;6.590;2022-07-12T11:13:36;102401.75;;;24.03;52.94
67038;BME280;53940;53.204;6.590;2022-07-12T11:16:46;102400.16;;;24.00;53.05
67038;BME280;53940;53.204;6.590;2022-07-12T11:19:47;102400.16;;;24.00;53.37
67038;BME280;53940;53.204;6.590;2022-07-12T11:22:48;102397.56;;;23.99;53.50
67038;BME280;53940;53.204;6.590;2022-07-12T11:25:48;102396.72;;;23.98;53.54
67038;BME280;53940;53.204;6.590;2022-07-12T11:28:48;102401.25;;;23.98;53.68
67038;BME280;53940;53.204;6.590;2022-07-12T11:31:49;102399.53;;;23.96;53.64
67038;BME280;53940;53.204;6.590;2022-07-12T11:34:53;102402.25;;;23.96;53.76
67038;BME280;53940;53.204;6.590;2022-07-12T11:37:55;102400.66;;;23.94;53.95
67038;BME280;53940;53.204;6.590;2022-07-12T11:40:59;102402.59;;;23.92;54.03
67038;BME280;53940;53.204;6.590;2022-07-12T11:44:00;102399.19;;;23.90;54.16
67038;BME280;53940;53.204;6.590;2022-07-12T11:47:00;102397.47;;;23.89;54.02
67038;BME280;53940;53.204;6.590;2022-07-12T11:50:01;102401.13;;;23.88;54.12
67038;BME280;53940;53.204;6.590;2022-07-12T11:53:02;102384.25;;;23.86;54.08
67038;BME280;53940;53.204;6.590;2022-07-12T11:56:05;102382.66;;;23.83;54.13
67038;BME280;53940;53.204;6.590;2022-07-12T11:59:06;102381.91;;;23.81;54.23
67038;BME280;53940;53.204;6.590;2022-07-12T12:02:08;102376.66;;;23.79;54.23
67038;BME280;53940;53.204;6.590;2022-07-12T12:05:09;102381.19;;;23.79;54.10
67038;BME280;53940;53.204;6.590;2022-07-12T12:08:10;102378.63;;;23.77;54.24
67038;BME280;53940;53.204;6.590;2022-07-12T12:11:12;102375.22;;;23.75;54.36
67038;BME280;53940;53.204;6.590;2022-07-12T12:14:13;102373.47;;;23.74;54.25
67038;BME280;53940;53.204;6.590;2022-07-12T12:17:13;102380.00;;;23.72;54.29
67038;BME280;53940;53.204;6.590;2022-07-12T12:20:19;102378.41;;;23.69;54.34
67038;BME280;53940;53.204;6.590;2022-07-12T12:23:20;102370.56;;;23.66;54.35
67038;BME280;53940;53.204;6.590;2022-07-12T12:26:20;102373.34;;;23.64;54.52
67038;BME280;53940;53.204;6.590;2022-07-12T12:29:39;102379.84;;;23.62;54.41
67038;BME280;53940;53.204;6.590;2022-07-12T12:35:50;102381.09;;;23.58;54.48
67038;BME280;53940;53.204;6.590;2022-07-12T12:38:55;102379.50;;;23.55;54.40
67038;BME280;53940;53.204;6.590;2022-07-12T12:41:56;102380.59;;;23.52;54.36
67038;BME280;53940;53.204;6.590;2022-07-12T12:44:56;102382.56;;;23.50;54.44
67038;BME280;53940;53.204;6.590;2022-07-12T12:48:02;102380.09;;;23.47;54.62
67038;BME280;53940;53.204;6.590;2022-07-12T12:51:04;102375.69;;;23.46;54.48
67038;BME280;53940;53.204;6.590;2022-07-12T12:54:05;102373.09;;;23.45;54.65
67038;BME280;53940;53.204;6.590;2022-07-12T12:57:08;102370.53;;;23.43;54.63
67038;BME280;53940;53.204;6.590;2022-07-12T13:00:09;102370.78;;;23.40;54.60
67038;BME280;53940;53.204;6.590;2022-07-12T13:03:12;102367.38;;;23.38;54.48
67038;BME280;53940;53.204;6.590;2022-07-12T13:06:12;102364.06;;;23.34;54.61
67038;BME280;53940;53.204;6.590;2022-07-12T13:09:13;102363.31;;;23.32;54.64
67038;BME280;53940;53.204;6.590;2022-07-12T13:12:13;102363.44;;;23.31;54.73
67038;BME280;53940;53.204;6.590;2022-07-12T13:15:13;102357.28;;;23.28;54.77
67038;BME280;53940;53.204;6.590;2022-07-12T13:18:14;102359.25;;;23.26;54.65
67038;BME280;53940;53.204;6.590;2022-07-12T13:21:15;102359.47;;;23.23;54.70
67038;BME280;53940;53.204;6.590;2022-07-12T13:24:17;102361.34;;;23.23;54.75
67038;BME280;53940;53.204;6.590;2022-07-12T13:27:17;102357.06;;;23.20;54.86
67038;BME280;53940;53.204;6.590;2022-07-12T13:30:18;102350.91;;;23.18;54.88
67038;BME280;53940;53.204;6.590;2022-07-12T13:33:19;102360.94;;;23.16;54.87
67038;BME280;53940;53.204;6.590;2022-07-12T13:36:20;102358.38;;;23.14;54.85
67038;BME280;53940;53.204;6.590;2022-07-12T13:39:21;102350.44;;;23.13;54.89
67038;BME280;53940;53.204;6.590;2022-07-12T13:42:48;102354.22;;;23.10;54.86
67038;BME280;53940;53.204;6.590;2022-07-12T13:45:50;102356.16;;;23.08;55.08
67038;BME280;53940;53.204;6.590;2022-07-12T13:48:50;102349.19;;;23.06;54.97
67038;BME280;53940;53.204;6.590;2022-07-12T13:51:54;102339.41;;;23.05;55.00
67038;BME280;53940;53.204;6.590;2022-07-12T13:54:54;102345.88;;;23.02;55.05
67038;BME280;53940;53.204;6.590;2022-07-12T13:57:55;102344.16;;;23.01;55.08
67038;BME280;53940;53.204;6.590;2022-07-12T14:00:56;102347.94;;;22.98;54.96
67038;BME280;53940;53.204;6.590;2022-07-12T14:03:56;102342.56;;;22.98;55.07
67038;BME280;53940;53.204;6.590;2022-07-12T14:06:57;102345.50;;;22.95;55.12
67038;BME280;53940;53.204;6.590;2022-07-12T14:09:59;102343.81;;;22.94;55.16
67038;BME280;53940;53.204;6.590;2022-07-12T14:12:59;102334.00;;;22.93;55.01
67038;BME280;53940;53.204;6.590;2022-07-12T14:15:59;102325.22;;;22.91;55.18
67038;BME280;53940;53.204;6.590;2022-07-12T14:19:00;102323.50;;;22.90;55.02
67038;BME280;53940;53.204;6.590;2022-07-12T14:22:03;102313.94;;;22.86;55.25
67038;BME280;53940;53.204;6.590;2022-07-12T14:25:04;102320.31;;;22.85;55.26
67038;BME280;53940;53.204;6.590;2022-07-12T14:28:05;102306.00;;;22.84;55.21
67038;BME280;53940;53.204;6.590;2022-07-12T14:31:05;102304.28;;;22.83;55.29
67038;BME280;53940;53.204;6.590;2022-07-12T14:34:06;102322.38;;;22.81;55.16
67038;BME280;53940;53.204;6.590;2022-07-12T14:37:06;102324.19;;;22.81;55.29
67038;BME280;53940;53.204;6.590;2022-07-12T14:40:07;102310.03;;;22.79;55.50
67038;BME280;53940;53.204;6.590;2022-07-12T14:43:08;102311.00;;;22.78;55.28
67038;BME280;53940;53.204;6.590;2022-07-12T14:46:08;102312.97;;;22.75;55.38
67038;BME280;53940;53.204;6.590;2022-07-12T14:49:08;102316.59;;;22.74;55.60
67038;BME280;53940;53.204;6.590;2022-07-12T14:52:08;102305.00;;;22.74;55.44
67038;BME280;53940;53.204;6.590;2022-07-12T14:55:09;102306.00;;;22.73;55.67
67038;BME280;53940;53.204;6.590;2022-07-12T14:58:09;102306.09;;;22.71;55.50
67038;BME280;53940;53.204;6.590;2022-07-12T15:01:10;102309.78;;;22.70;55.60
67038;BME280;53940;53.204;6.590;2022-07-12T15:04:10;102308.06;;;22.69;55.60
67038;BME280;53940;53.204;6.590;2022-07-12T15:07:12;102311.69;;;22.68;55.57
67038;BME280;53940;53.204;6.590;2022-07-12T15:10:12;102301.94;;;22.67;55.61
67038;BME280;53940;53.204;6.590;2022-07-12T15:13:12;102302.91;;;22.66;55.61
67038;BME280;53940;53.204;6.590;2022-07-12T15:16:13;102295.81;;;22.65;55.62
67038;BME280;53940;53.204;6.590;2022-07-12T15:19:14;102293.13;;;22.65;55.64
67038;BME280;53940;53.204;6.590;2022-07-12T15:22:15;102292.41;;;22.63;55.75
67038;BME280;53940;53.204;6.590;2022-07-12T15:25:16;102287.03;;;22.63;55.75
67038;BME280;53940;53.204;6.590;2022-07-12T15:28:16;102286.28;;;22.61;55.66
67038;BME280;53940;53.204;6.590;2022-07-12T15:31:16;102294.34;;;22.61;55.63
67038;BME280;53940;53.204;6.590;2022-07-12T15:34:17;102286.38;;;22.59;55.67
67038;BME280;53940;53.204;6.590;2022-07-12T15:37:17;102285.56;;;22.59;55.98
67038;BME280;53940;53.204;6.590;2022-07-12T15:40:17;102275.91;;;22.56;55.65
67038;BME280;53940;53.204;6.590;2022-07-12T15:43:18;102275.03;;;22.56;55.67
67038;BME280;53940;53.204;6.590;2022-07-12T15:46:19;102262.69;;;22.53;55.79
67038;BME280;53940;53.204;6.590;2022-07-12T15:49:20;102258.28;;;22.52;55.91
67038;BME280;53940;53.204;6.590;2022-07-12T15:52:20;102258.38;;;22.51;55.83
67038;BME280;53940;53.204;6.590;2022-07-12T15:55:39;102261.06;;;22.51;55.71
67038;BME280;53940;53.204;6.590;2022-07-12T15:58:40;102262.03;;;22.49;56.06
67038;BME280;53940;53.204;6.590;2022-07-12T16:01:42;102257.63;;;22.48;55.76